sensor_id;sensor_type;location;lat;lon;timestamp;P1;durP1;ratioP1;P2;durP2;ratioP2
44536;SDS011;30245;51.966;6.292;2023-11-21T00:02:02;15.97;;;8.53;;
44536;SDS011;30245;51.966;6.292;2023-11-21T00:04:29;14.00;;;8.03;;
44536;SDS011;30245;51.966;6.292;2023-11-21T00:06:55;19.57;;;9.47;;
44536;SDS011;30245;51.966;6.292;2023-11-21T00:09:20;11.93;;;7.90;;
44536;SDS011;30245;51.966;6.292;2023-11-21T00:11:46;13.73;;;8.77;;
44536;SDS011;30245;51.966;6.292;2023-11-21T00:14:12;13.40;;;7.97;;
44536;SDS011;30245;51.966;6.292;2023-11-21T00:16:40;13.88;;;7.65;;
44536;SDS011;30245;51.966;6.292;2023-11-21T00:19:06;15.67;;;8.50;;
44536;SDS011;30245;51.966;6.292;2023-11-21T00:21:32;17.63;;;7.77;;
44536;SDS011;30245;51.966;6.292;2023-11-21T00:23:57;18.67;;;9.63;;
44536;SDS011;30245;51.966;6.292;2023-11-21T00:26:23;16.23;;;7.43;;
44536;SDS011;30245;51.966;6.292;2023-11-21T00:28:49;14.23;;;8.30;;
44536;SDS011;30245;51.966;6.292;2023-11-21T00:31:15;15.00;;;8.87;;
44536;SDS011;30245;51.966;6.292;2023-11-21T00:33:41;11.17;;;7.47;;
44536;SDS011;30245;51.966;6.292;2023-11-21T00:36:07;12.93;;;7.43;;
44536;SDS011;30245;51.966;6.292;2023-11-21T00:38:35;18.25;;;8.20;;
44536;SDS011;30245;51.966;6.292;2023-11-21T00:41:01;15.33;;;9.20;;
44536;SDS011;30245;51.966;6.292;2023-11-21T00:43:27;12.57;;;7.93;;
44536;SDS011;30245;51.966;6.292;2023-11-21T00:45:53;10.83;;;8.63;;
44536;SDS011;30245;51.966;6.292;2023-11-21T00:48:19;18.77;;;9.57;;
44536;SDS011;30245;51.966;6.292;2023-11-21T00:50:44;12.33;;;9.17;;
44536;SDS011;30245;51.966;6.292;2023-11-21T00:53:10;16.97;;;8.13;;
44536;SDS011;30245;51.966;6.292;2023-11-21T00:55:36;13.77;;;9.10;;
44536;SDS011;30245;51.966;6.292;2023-11-21T00:58:04;13.23;;;9.82;;
44536;SDS011;30245;51.966;6.292;2023-11-21T01:00:31;13.00;;;8.57;;
44536;SDS011;30245;51.966;6.292;2023-11-21T01:02:58;14.17;;;8.60;;
44536;SDS011;30245;51.966;6.292;2023-11-21T01:05:23;14.30;;;9.17;;
44536;SDS011;30245;51.966;6.292;2023-11-21T01:07:49;17.00;;;9.17;;
44536;SDS011;30245;51.966;6.292;2023-11-21T01:10:15;18.13;;;8.37;;
44536;SDS011;30245;51.966;6.292;2023-11-21T01:12:42;10.97;;;7.10;;
44536;SDS011;30245;51.966;6.292;2023-11-21T01:15:08;13.20;;;8.47;;
44536;SDS011;30245;51.966;6.292;2023-11-21T01:17:33;20.60;;;9.87;;
44536;SDS011;30245;51.966;6.292;2023-11-21T01:20:00;16.13;;;8.43;;
44536;SDS011;30245;51.966;6.292;2023-11-21T01:22:26;11.00;;;8.63;;
44536;SDS011;30245;51.966;6.292;2023-11-21T01:24:52;15.03;;;9.57;;
44536;SDS011;30245;51.966;6.292;2023-11-21T01:27:18;17.33;;;8.43;;
44536;SDS011;30245;51.966;6.292;2023-11-21T01:29:43;12.93;;;7.37;;
44536;SDS011;30245;51.966;6.292;2023-11-21T01:32:09;13.20;;;8.70;;
44536;SDS011;30245;51.966;6.292;2023-11-21T01:34:35;16.73;;;10.00;;
44536;SDS011;30245;51.966;6.292;2023-11-21T01:37:01;15.67;;;9.00;;
44536;SDS011;30245;51.966;6.292;2023-11-21T01:39:29;16.00;;;9.00;;
44536;SDS011;30245;51.966;6.292;2023-11-21T01:41:55;13.30;;;9.37;;
44536;SDS011;30245;51.966;6.292;2023-11-21T01:44:23;11.77;;;8.73;;
44536;SDS011;30245;51.966;6.292;2023-11-21T01:46:49;13.30;;;8.63;;
44536;SDS011;30245;51.966;6.292;2023-11-21T01:49:16;11.70;;;8.03;;
44536;SDS011;30245;51.966;6.292;2023-11-21T01:51:43;13.33;;;7.97;;
44536;SDS011;30245;51.966;6.292;2023-11-21T01:54:12;14.93;;;8.97;;
44536;SDS011;30245;51.966;6.292;2023-11-21T01:56:38;17.60;;;10.20;;
44536;SDS011;30245;51.966;6.292;2023-11-21T01:59:04;14.73;;;9.60;;
44536;SDS011;30245;51.966;6.292;2023-11-21T02:01:32;15.68;;;10.32;;
44536;SDS011;30245;51.966;6.292;2023-11-21T02:03:58;14.47;;;9.23;;
44536;SDS011;30245;51.966;6.292;2023-11-21T02:06:23;16.33;;;9.30;;
44536;SDS011;30245;51.966;6.292;2023-11-21T02:08:49;15.97;;;10.17;;
44536;SDS011;30245;51.966;6.292;2023-11-21T02:11:15;12.27;;;7.93;;
44536;SDS011;30245;51.966;6.292;2023-11-21T02:13:41;16.00;;;9.43;;
44536;SDS011;30245;51.966;6.292;2023-11-21T02:16:10;15.27;;;9.27;;
44536;SDS011;30245;51.966;6.292;2023-11-21T02:18:37;13.27;;;8.60;;
44536;SDS011;30245;51.966;6.292;2023-11-21T02:21:04;15.63;;;8.80;;
44536;SDS011;30245;51.966;6.292;2023-11-21T02:23:30;16.67;;;9.63;;
44536;SDS011;30245;51.966;6.292;2023-11-21T02:25:55;12.23;;;7.13;;
44536;SDS011;30245;51.966;6.292;2023-11-21T02:28:21;17.07;;;8.90;;
44536;SDS011;30245;51.966;6.292;2023-11-21T02:30:51;11.73;;;8.70;;
44536;SDS011;30245;51.966;6.292;2023-11-21T02:33:24;17.43;;;8.93;;
44536;SDS011;30245;51.966;6.292;2023-11-21T02:35:49;21.60;;;10.00;;
44536;SDS011;30245;51.966;6.292;2023-11-21T02:38:19;13.87;;;8.83;;
44536;SDS011;30245;51.966;6.292;2023-11-21T02:40:45;22.73;;;10.93;;
44536;SDS011;30245;51.966;6.292;2023-11-21T02:43:11;15.87;;;9.87;;
44536;SDS011;30245;51.966;6.292;2023-11-21T02:45:37;18.20;;;11.63;;
44536;SDS011;30245;51.966;6.292;2023-11-21T02:48:02;20.47;;;10.83;;
44536;SDS011;30245;51.966;6.292;2023-11-21T02:50:29;22.90;;;11.47;;
44536;SDS011;30245;51.966;6.292;2023-11-21T02:52:55;18.37;;;9.87;;
44536;SDS011;30245;51.966;6.292;2023-11-21T02:55:22;20.17;;;11.33;;
44536;SDS011;30245;51.966;6.292;2023-11-21T02:57:50;25.53;;;12.70;;
44536;SDS011;30245;51.966;6.292;2023-11-21T03:00:15;20.30;;;12.23;;
44536;SDS011;30245;51.966;6.292;2023-11-21T03:02:42;23.70;;;12.67;;
44536;SDS011;30245;51.966;6.292;2023-11-21T03:05:08;21.17;;;13.23;;
44536;SDS011;30245;51.966;6.292;2023-11-21T03:07:35;31.00;;;15.30;;
44536;SDS011;30245;51.966;6.292;2023-11-21T03:10:03;21.33;;;12.07;;
44536;SDS011;30245;51.966;6.292;2023-11-21T03:12:29;26.23;;;13.27;;
44536;SDS011;30245;51.966;6.292;2023-11-21T03:14:55;26.47;;;14.27;;
44536;SDS011;30245;51.966;6.292;2023-11-21T03:17:21;33.27;;;14.97;;
44536;SDS011;30245;51.966;6.292;2023-11-21T03:19:46;30.80;;;13.97;;
44536;SDS011;30245;51.966;6.292;2023-11-21T03:22:12;26.93;;;13.93;;
44536;SDS011;30245;51.966;6.292;2023-11-21T03:24:38;29.90;;;14.63;;
44536;SDS011;30245;51.966;6.292;2023-11-21T03:27:04;26.57;;;13.47;;
44536;SDS011;30245;51.966;6.292;2023-11-21T03:29:30;25.50;;;14.03;;
44536;SDS011;30245;51.966;6.292;2023-11-21T03:31:55;33.30;;;12.47;;
44536;SDS011;30245;51.966;6.292;2023-11-21T03:34:25;36.33;;;16.83;;
44536;SDS011;30245;51.966;6.292;2023-11-21T03:36:51;32.70;;;15.13;;
44536;SDS011;30245;51.966;6.292;2023-11-21T03:39:18;32.53;;;14.47;;
44536;SDS011;30245;51.966;6.292;2023-11-21T03:41:47;32.63;;;16.00;;
44536;SDS011;30245;51.966;6.292;2023-11-21T03:44:14;30.17;;;15.37;;
44536;SDS011;30245;51.966;6.292;2023-11-21T03:46:40;30.13;;;13.97;;
44536;SDS011;30245;51.966;6.292;2023-11-21T03:49:05;32.57;;;14.57;;
44536;SDS011;30245;51.966;6.292;2023-11-21T03:51:32;36.13;;;15.77;;
44536;SDS011;30245;51.966;6.292;2023-11-21T03:53:59;32.47;;;15.13;;
44536;SDS011;30245;51.966;6.292;2023-11-21T03:56:24;36.60;;;15.60;;
44536;SDS011;30245;51.966;6.292;2023-11-21T03:58:50;28.00;;;15.10;;
44536;SDS011;30245;51.966;6.292;2023-11-21T04:01:19;31.37;;;16.77;;
44536;SDS011;30245;51.966;6.292;2023-11-21T04:03:46;31.67;;;16.97;;
44536;SDS011;30245;51.966;6.292;2023-11-21T04:06:12;37.97;;;17.17;;
44536;SDS011;30245;51.966;6.292;2023-11-21T04:08:38;35.73;;;17.73;;
44536;SDS011;30245;51.966;6.292;2023-11-21T04:11:03;34.00;;;16.87;;
44536;SDS011;30245;51.966;6.292;2023-11-21T04:13:29;31.73;;;16.33;;
44536;SDS011;30245;51.966;6.292;2023-11-21T04:15:55;31.50;;;17.30;;
44536;SDS011;30245;51.966;6.292;2023-11-21T04:18:21;31.83;;;17.13;;
44536;SDS011;30245;51.966;6.292;2023-11-21T04:20:48;35.80;;;16.33;;
44536;SDS011;30245;51.966;6.292;2023-11-21T04:23:14;31.57;;;16.37;;
44536;SDS011;30245;51.966;6.292;2023-11-21T04:25:40;29.67;;;14.23;;
44536;SDS011;30245;51.966;6.292;2023-11-21T04:28:05;29.43;;;16.13;;
44536;SDS011;30245;51.966;6.292;2023-11-21T04:30:31;40.70;;;16.37;;
44536;SDS011;30245;51.966;6.292;2023-11-21T04:32:57;29.93;;;15.07;;
44536;SDS011;30245;51.966;6.292;2023-11-21T04:35:23;39.60;;;16.67;;
44536;SDS011;30245;51.966;6.292;2023-11-21T04:37:49;34.30;;;17.37;;
44536;SDS011;30245;51.966;6.292;2023-11-21T04:40:16;44.27;;;16.80;;
44536;SDS011;30245;51.966;6.292;2023-11-21T04:42:41;35.77;;;18.73;;
44536;SDS011;30245;51.966;6.292;2023-11-21T04:45:07;28.63;;;15.33;;
44536;SDS011;30245;51.966;6.292;2023-11-21T04:47:34;40.80;;;17.03;;
44536;SDS011;30245;51.966;6.292;2023-11-21T04:50:00;28.90;;;15.20;;
44536;SDS011;30245;51.966;6.292;2023-11-21T04:52:26;39.17;;;17.17;;
44536;SDS011;30245;51.966;6.292;2023-11-21T04:54:51;35.27;;;17.10;;
44536;SDS011;30245;51.966;6.292;2023-11-21T04:57:19;30.50;;;15.20;;
44536;SDS011;30245;51.966;6.292;2023-11-21T04:59:45;28.93;;;15.07;;
44536;SDS011;30245;51.966;6.292;2023-11-21T05:02:11;36.67;;;15.70;;
44536;SDS011;30245;51.966;6.292;2023-11-21T05:04:37;32.23;;;14.17;;
44536;SDS011;30245;51.966;6.292;2023-11-21T05:07:03;33.07;;;16.13;;
44536;SDS011;30245;51.966;6.292;2023-11-21T05:09:28;31.17;;;15.23;;
44536;SDS011;30245;51.966;6.292;2023-11-21T05:11:57;32.20;;;16.35;;
44536;SDS011;30245;51.966;6.292;2023-11-21T05:14:22;31.60;;;17.10;;
44536;SDS011;30245;51.966;6.292;2023-11-21T05:16:48;30.80;;;17.07;;
44536;SDS011;30245;51.966;6.292;2023-11-21T05:19:16;29.10;;;16.15;;
44536;SDS011;30245;51.966;6.292;2023-11-21T05:21:42;25.93;;;14.90;;
44536;SDS011;30245;51.966;6.292;2023-11-21T05:24:07;28.93;;;15.87;;
44536;SDS011;30245;51.966;6.292;2023-11-21T05:26:34;28.53;;;14.30;;
44536;SDS011;30245;51.966;6.292;2023-11-21T05:29:00;31.63;;;16.13;;
44536;SDS011;30245;51.966;6.292;2023-11-21T05:31:25;27.87;;;15.07;;
44536;SDS011;30245;51.966;6.292;2023-11-21T05:33:52;29.60;;;14.80;;
44536;SDS011;30245;51.966;6.292;2023-11-21T05:36:18;28.87;;;14.57;;
44536;SDS011;30245;51.966;6.292;2023-11-21T05:38:43;31.37;;;16.13;;
44536;SDS011;30245;51.966;6.292;2023-11-21T05:41:09;32.67;;;15.50;;
44536;SDS011;30245;51.966;6.292;2023-11-21T05:43:38;26.73;;;14.50;;
44536;SDS011;30245;51.966;6.292;2023-11-21T05:46:04;30.93;;;15.27;;
44536;SDS011;30245;51.966;6.292;2023-11-21T05:48:32;28.33;;;15.43;;
44536;SDS011;30245;51.966;6.292;2023-11-21T05:50:57;35.67;;;17.67;;
44536;SDS011;30245;51.966;6.292;2023-11-21T05:53:24;25.40;;;13.07;;
44536;SDS011;30245;51.966;6.292;2023-11-21T05:55:49;29.63;;;15.07;;
44536;SDS011;30245;51.966;6.292;2023-11-21T05:58:15;28.97;;;14.87;;
44536;SDS011;30245;51.966;6.292;2023-11-21T06:00:41;29.40;;;15.20;;
44536;SDS011;30245;51.966;6.292;2023-11-21T06:03:06;32.60;;;15.37;;
44536;SDS011;30245;51.966;6.292;2023-11-21T06:05:33;30.00;;;15.43;;
44536;SDS011;30245;51.966;6.292;2023-11-21T06:07:58;30.83;;;14.43;;
44536;SDS011;30245;51.966;6.292;2023-11-21T06:10:25;32.30;;;16.47;;
44536;SDS011;30245;51.966;6.292;2023-11-21T06:12:51;34.77;;;15.53;;
44536;SDS011;30245;51.966;6.292;2023-11-21T06:15:18;29.93;;;16.47;;
44536;SDS011;30245;51.966;6.292;2023-11-21T06:17:48;29.90;;;14.63;;
44536;SDS011;30245;51.966;6.292;2023-11-21T06:20:20;28.10;;;14.50;;
44536;SDS011;30245;51.966;6.292;2023-11-21T06:22:46;29.57;;;14.63;;
44536;SDS011;30245;51.966;6.292;2023-11-21T06:25:13;28.97;;;14.90;;
44536;SDS011;30245;51.966;6.292;2023-11-21T06:27:40;29.87;;;13.33;;
44536;SDS011;30245;51.966;6.292;2023-11-21T06:30:07;23.37;;;13.23;;
44536;SDS011;30245;51.966;6.292;2023-11-21T06:32:34;22.87;;;11.87;;
44536;SDS011;30245;51.966;6.292;2023-11-21T06:35:01;26.77;;;14.63;;
44536;SDS011;30245;51.966;6.292;2023-11-21T06:37:29;25.70;;;13.77;;
44536;SDS011;30245;51.966;6.292;2023-11-21T06:39:56;21.60;;;12.17;;
44536;SDS011;30245;51.966;6.292;2023-11-21T06:42:23;23.67;;;13.07;;
44536;SDS011;30245;51.966;6.292;2023-11-21T06:44:49;21.10;;;11.83;;
44536;SDS011;30245;51.966;6.292;2023-11-21T06:47:19;22.43;;;12.57;;
44536;SDS011;30245;51.966;6.292;2023-11-21T06:49:51;17.27;;;9.77;;
44536;SDS011;30245;51.966;6.292;2023-11-21T06:52:18;22.37;;;11.90;;
44536;SDS011;30245;51.966;6.292;2023-11-21T06:54:43;17.43;;;9.77;;
44536;SDS011;30245;51.966;6.292;2023-11-21T06:57:10;15.27;;;10.07;;
44536;SDS011;30245;51.966;6.292;2023-11-21T06:59:36;21.60;;;10.43;;
44536;SDS011;30245;51.966;6.292;2023-11-21T07:02:01;16.67;;;9.83;;
44536;SDS011;30245;51.966;6.292;2023-11-21T07:04:27;15.57;;;9.70;;
44536;SDS011;30245;51.966;6.292;2023-11-21T07:06:55;14.57;;;9.97;;
44536;SDS011;30245;51.966;6.292;2023-11-21T07:09:21;14.43;;;10.02;;
44536;SDS011;30245;51.966;6.292;2023-11-21T07:11:47;14.80;;;10.00;;
44536;SDS011;30245;51.966;6.292;2023-11-21T07:14:14;15.73;;;9.23;;
44536;SDS011;30245;51.966;6.292;2023-11-21T07:16:40;15.17;;;10.63;;
44536;SDS011;30245;51.966;6.292;2023-11-21T07:19:05;16.17;;;9.90;;
44536;SDS011;30245;51.966;6.292;2023-11-21T07:21:32;14.47;;;9.60;;
44536;SDS011;30245;51.966;6.292;2023-11-21T07:23:58;14.70;;;10.00;;
44536;SDS011;30245;51.966;6.292;2023-11-21T07:26:28;15.93;;;9.63;;
44536;SDS011;30245;51.966;6.292;2023-11-21T07:28:54;17.93;;;9.23;;
44536;SDS011;30245;51.966;6.292;2023-11-21T07:31:20;13.87;;;9.70;;
44536;SDS011;30245;51.966;6.292;2023-11-21T07:33:46;17.50;;;9.73;;
44536;SDS011;30245;51.966;6.292;2023-11-21T07:36:12;14.43;;;10.03;;
44536;SDS011;30245;51.966;6.292;2023-11-21T07:38:39;15.63;;;10.67;;
44536;SDS011;30245;51.966;6.292;2023-11-21T07:41:06;20.83;;;12.07;;
44536;SDS011;30245;51.966;6.292;2023-11-21T07:43:33;18.67;;;11.83;;
44536;SDS011;30245;51.966;6.292;2023-11-21T07:46:02;15.47;;;9.67;;
44536;SDS011;30245;51.966;6.292;2023-11-21T07:48:29;11.97;;;9.67;;
44536;SDS011;30245;51.966;6.292;2023-11-21T07:50:55;17.53;;;11.60;;
44536;SDS011;30245;51.966;6.292;2023-11-21T07:53:20;14.13;;;10.73;;
44536;SDS011;30245;51.966;6.292;2023-11-21T07:55:47;16.93;;;11.83;;
44536;SDS011;30245;51.966;6.292;2023-11-21T07:58:12;18.13;;;12.20;;
44536;SDS011;30245;51.966;6.292;2023-11-21T08:00:38;13.87;;;10.23;;
44536;SDS011;30245;51.966;6.292;2023-11-21T08:03:04;18.60;;;9.83;;
44536;SDS011;30245;51.966;6.292;2023-11-21T08:05:30;15.03;;;9.97;;
44536;SDS011;30245;51.966;6.292;2023-11-21T08:07:56;15.80;;;9.53;;
44536;SDS011;30245;51.966;6.292;2023-11-21T08:10:22;17.47;;;9.30;;
44536;SDS011;30245;51.966;6.292;2023-11-21T08:12:48;12.47;;;9.20;;
44536;SDS011;30245;51.966;6.292;2023-11-21T08:15:15;15.13;;;9.43;;
44536;SDS011;30245;51.966;6.292;2023-11-21T08:17:41;14.10;;;9.80;;
44536;SDS011;30245;51.966;6.292;2023-11-21T08:20:06;11.53;;;8.77;;
44536;SDS011;30245;51.966;6.292;2023-11-21T08:22:33;13.93;;;10.60;;
44536;SDS011;30245;51.966;6.292;2023-11-21T08:24:59;13.30;;;10.20;;
44536;SDS011;30245;51.966;6.292;2023-11-21T08:27:25;14.67;;;9.87;;
44536;SDS011;30245;51.966;6.292;2023-11-21T08:29:50;15.17;;;10.17;;
44536;SDS011;30245;51.966;6.292;2023-11-21T08:32:17;13.27;;;8.83;;
44536;SDS011;30245;51.966;6.292;2023-11-21T08:34:43;13.27;;;9.40;;
44536;SDS011;30245;51.966;6.292;2023-11-21T08:37:09;14.97;;;10.27;;
44536;SDS011;30245;51.966;6.292;2023-11-21T08:39:36;13.90;;;10.07;;
44536;SDS011;30245;51.966;6.292;2023-11-21T08:42:03;14.27;;;8.53;;
44536;SDS011;30245;51.966;6.292;2023-11-21T08:44:28;13.20;;;8.53;;
44536;SDS011;30245;51.966;6.292;2023-11-21T08:46:55;12.47;;;9.00;;
44536;SDS011;30245;51.966;6.292;2023-11-21T08:49:21;11.87;;;8.20;;
44536;SDS011;30245;51.966;6.292;2023-11-21T08:51:46;16.43;;;11.13;;
44536;SDS011;30245;51.966;6.292;2023-11-21T08:54:12;14.83;;;9.53;;
44536;SDS011;30245;51.966;6.292;2023-11-21T08:56:39;12.87;;;9.63;;
44536;SDS011;30245;51.966;6.292;2023-11-21T08:59:04;13.70;;;10.60;;
44536;SDS011;30245;51.966;6.292;2023-11-21T09:01:31;13.20;;;9.57;;
44536;SDS011;30245;51.966;6.292;2023-11-21T09:03:57;11.57;;;8.83;;
44536;SDS011;30245;51.966;6.292;2023-11-21T09:06:23;14.70;;;10.60;;
44536;SDS011;30245;51.966;6.292;2023-11-21T09:08:49;14.53;;;11.10;;
44536;SDS011;30245;51.966;6.292;2023-11-21T09:11:15;13.60;;;10.23;;
44536;SDS011;30245;51.966;6.292;2023-11-21T09:13:40;14.67;;;10.63;;
44536;SDS011;30245;51.966;6.292;2023-11-21T09:16:06;15.57;;;11.13;;
44536;SDS011;30245;51.966;6.292;2023-11-21T09:18:32;12.93;;;10.53;;
44536;SDS011;30245;51.966;6.292;2023-11-21T09:20:57;12.43;;;9.50;;
44536;SDS011;30245;51.966;6.292;2023-11-21T09:23:23;14.80;;;9.93;;
44536;SDS011;30245;51.966;6.292;2023-11-21T09:25:49;14.67;;;10.17;;
44536;SDS011;30245;51.966;6.292;2023-11-21T09:28:16;14.63;;;10.27;;
44536;SDS011;30245;51.966;6.292;2023-11-21T09:30:43;13.23;;;10.60;;
44536;SDS011;30245;51.966;6.292;2023-11-21T09:33:09;11.17;;;9.57;;
44536;SDS011;30245;51.966;6.292;2023-11-21T09:35:37;10.90;;;9.00;;
44536;SDS011;30245;51.966;6.292;2023-11-21T09:38:03;13.50;;;9.00;;
44536;SDS011;30245;51.966;6.292;2023-11-21T09:40:34;12.00;;;9.23;;
44536;SDS011;30245;51.966;6.292;2023-11-21T09:43:00;12.60;;;10.50;;
44536;SDS011;30245;51.966;6.292;2023-11-21T09:45:43;10.77;;;8.73;;
44536;SDS011;30245;51.966;6.292;2023-11-21T09:48:19;12.50;;;8.53;;
44536;SDS011;30245;51.966;6.292;2023-11-21T09:50:46;12.97;;;9.47;;
44536;SDS011;30245;51.966;6.292;2023-11-21T09:58:11;13.10;;;8.47;;
44536;SDS011;30245;51.966;6.292;2023-11-21T10:00:41;13.63;;;10.17;;
44536;SDS011;30245;51.966;6.292;2023-11-21T10:03:14;15.63;;;10.90;;
44536;SDS011;30245;51.966;6.292;2023-11-21T10:05:42;12.10;;;9.23;;
44536;SDS011;30245;51.966;6.292;2023-11-21T10:08:10;13.60;;;10.88;;
44536;SDS011;30245;51.966;6.292;2023-11-21T10:10:37;11.80;;;9.27;;
44536;SDS011;30245;51.966;6.292;2023-11-21T10:13:06;14.45;;;10.35;;
44536;SDS011;30245;51.966;6.292;2023-11-21T10:15:35;12.00;;;10.07;;
44536;SDS011;30245;51.966;6.292;2023-11-21T10:18:04;10.70;;;8.30;;
44536;SDS011;30245;51.966;6.292;2023-11-21T10:20:32;14.90;;;10.50;;
44536;SDS011;30245;51.966;6.292;2023-11-21T10:22:59;20.90;;;12.63;;
44536;SDS011;30245;51.966;6.292;2023-11-21T10:25:28;16.60;;;11.20;;
44536;SDS011;30245;51.966;6.292;2023-11-21T10:27:57;17.45;;;12.52;;
44536;SDS011;30245;51.966;6.292;2023-11-21T10:30:35;18.60;;;11.20;;
44536;SDS011;30245;51.966;6.292;2023-11-21T10:33:02;17.10;;;11.17;;
44536;SDS011;30245;51.966;6.292;2023-11-21T10:35:40;15.68;;;10.65;;
44536;SDS011;30245;51.966;6.292;2023-11-21T10:38:12;15.73;;;11.70;;
44536;SDS011;30245;51.966;6.292;2023-11-21T10:40:39;16.23;;;11.95;;
44536;SDS011;30245;51.966;6.292;2023-11-21T10:43:11;16.48;;;11.57;;
44536;SDS011;30245;51.966;6.292;2023-11-21T10:45:38;14.48;;;10.02;;
44536;SDS011;30245;51.966;6.292;2023-11-21T10:48:10;14.93;;;10.43;;
44536;SDS011;30245;51.966;6.292;2023-11-21T10:50:46;15.40;;;10.18;;
44536;SDS011;30245;51.966;6.292;2023-11-21T10:53:12;11.23;;;8.30;;
44536;SDS011;30245;51.966;6.292;2023-11-21T10:55:38;15.05;;;9.88;;
44536;SDS011;30245;51.966;6.292;2023-11-21T10:58:04;10.75;;;7.85;;
44536;SDS011;30245;51.966;6.292;2023-11-21T11:00:31;10.38;;;7.97;;
44536;SDS011;30245;51.966;6.292;2023-11-21T11:02:58;11.30;;;8.00;;
44536;SDS011;30245;51.966;6.292;2023-11-21T11:05:25;10.88;;;8.00;;
44536;SDS011;30245;51.966;6.292;2023-11-21T11:08:00;8.63;;;7.25;;
44536;SDS011;30245;51.966;6.292;2023-11-21T11:10:30;10.60;;;7.40;;
44536;SDS011;30245;51.966;6.292;2023-11-21T11:12:56;9.50;;;7.35;;
44536;SDS011;30245;51.966;6.292;2023-11-21T11:15:23;11.10;;;9.18;;
44536;SDS011;30245;51.966;6.292;2023-11-21T11:17:50;9.48;;;7.13;;
44536;SDS011;30245;51.966;6.292;2023-11-21T11:20:16;9.73;;;7.85;;
44536;SDS011;30245;51.966;6.292;2023-11-21T11:34:29;9.65;;;6.57;;
44536;SDS011;30245;51.966;6.292;2023-11-21T11:37:02;10.82;;;7.82;;
44536;SDS011;30245;51.966;6.292;2023-11-21T11:42:07;9.27;;;6.07;;
44536;SDS011;30245;51.966;6.292;2023-11-21T11:47:32;7.47;;;6.30;;
44536;SDS011;30245;51.966;6.292;2023-11-21T11:50:02;7.85;;;5.88;;
44536;SDS011;30245;51.966;6.292;2023-11-21T11:52:48;6.43;;;4.63;;
44536;SDS011;30245;51.966;6.292;2023-11-21T11:55:16;7.85;;;4.20;;
44536;SDS011;30245;51.966;6.292;2023-11-21T11:57:44;7.22;;;4.68;;
44536;SDS011;30245;51.966;6.292;2023-11-21T12:02:54;6.97;;;5.40;;
44536;SDS011;30245;51.966;6.292;2023-11-21T12:05:25;7.38;;;4.53;;
44536;SDS011;30245;51.966;6.292;2023-11-21T12:07:56;5.93;;;4.40;;
44536;SDS011;30245;51.966;6.292;2023-11-21T12:10:30;7.60;;;5.55;;
44536;SDS011;30245;51.966;6.292;2023-11-21T12:12:57;9.23;;;7.00;;
44536;SDS011;30245;51.966;6.292;2023-11-21T12:15:25;6.78;;;5.78;;
44536;SDS011;30245;51.966;6.292;2023-11-21T12:17:51;10.00;;;6.28;;
44536;SDS011;30245;51.966;6.292;2023-11-21T12:20:23;9.68;;;6.25;;
44536;SDS011;30245;51.966;6.292;2023-11-21T12:22:50;8.52;;;5.57;;
44536;SDS011;30245;51.966;6.292;2023-11-21T12:25:18;9.35;;;7.57;;
44536;SDS011;30245;51.966;6.292;2023-11-21T12:27:49;9.90;;;7.13;;
44536;SDS011;30245;51.966;6.292;2023-11-21T12:30:19;8.05;;;6.65;;
44536;SDS011;30245;51.966;6.292;2023-11-21T12:32:50;9.40;;;7.35;;
44536;SDS011;30245;51.966;6.292;2023-11-21T12:35:17;10.73;;;7.85;;
44536;SDS011;30245;51.966;6.292;2023-11-21T12:37:47;9.30;;;6.90;;
44536;SDS011;30245;51.966;6.292;2023-11-21T12:40:14;9.20;;;7.20;;
44536;SDS011;30245;51.966;6.292;2023-11-21T12:42:51;9.13;;;6.75;;
44536;SDS011;30245;51.966;6.292;2023-11-21T12:45:25;11.57;;;7.90;;
44536;SDS011;30245;51.966;6.292;2023-11-21T12:47:59;10.82;;;7.30;;
44536;SDS011;30245;51.966;6.292;2023-11-21T12:50:29;10.98;;;7.68;;
44536;SDS011;30245;51.966;6.292;2023-11-21T12:53:00;14.43;;;8.98;;
44536;SDS011;30245;51.966;6.292;2023-11-21T12:55:30;9.50;;;5.95;;
44536;SDS011;30245;51.966;6.292;2023-11-21T12:57:57;8.65;;;6.93;;
44536;SDS011;30245;51.966;6.292;2023-11-21T13:00:44;14.73;;;8.05;;
44536;SDS011;30245;51.966;6.292;2023-11-21T13:03:11;12.23;;;7.80;;
44536;SDS011;30245;51.966;6.292;2023-11-21T13:05:41;8.90;;;6.15;;
44536;SDS011;30245;51.966;6.292;2023-11-21T13:08:09;9.90;;;6.97;;
44536;SDS011;30245;51.966;6.292;2023-11-21T13:10:41;10.18;;;7.38;;
44536;SDS011;30245;51.966;6.292;2023-11-21T13:13:11;10.68;;;5.65;;
44536;SDS011;30245;51.966;6.292;2023-11-21T13:15:51;10.98;;;7.03;;
44536;SDS011;30245;51.966;6.292;2023-11-21T13:18:21;8.32;;;6.43;;
44536;SDS011;30245;51.966;6.292;2023-11-21T13:20:53;10.98;;;7.47;;
44536;SDS011;30245;51.966;6.292;2023-11-21T13:23:20;10.40;;;7.15;;
44536;SDS011;30245;51.966;6.292;2023-11-21T13:25:47;9.63;;;6.53;;
44536;SDS011;30245;51.966;6.292;2023-11-21T13:28:14;10.07;;;6.80;;
44536;SDS011;30245;51.966;6.292;2023-11-21T13:30:45;11.90;;;8.38;;
44536;SDS011;30245;51.966;6.292;2023-11-21T13:33:11;11.88;;;7.35;;
44536;SDS011;30245;51.966;6.292;2023-11-21T13:35:42;13.05;;;8.25;;
44536;SDS011;30245;51.966;6.292;2023-11-21T13:38:14;13.00;;;8.45;;
44536;SDS011;30245;51.966;6.292;2023-11-21T13:40:42;14.27;;;8.57;;
44536;SDS011;30245;51.966;6.292;2023-11-21T13:43:14;10.63;;;6.25;;
44536;SDS011;30245;51.966;6.292;2023-11-21T13:45:46;11.00;;;7.38;;
44536;SDS011;30245;51.966;6.292;2023-11-21T13:48:16;11.57;;;6.38;;
44536;SDS011;30245;51.966;6.292;2023-11-21T13:50:50;12.50;;;7.97;;
44536;SDS011;30245;51.966;6.292;2023-11-21T13:53:33;10.70;;;7.03;;
44536;SDS011;30245;51.966;6.292;2023-11-21T13:56:02;10.07;;;5.40;;
44536;SDS011;30245;51.966;6.292;2023-11-21T13:58:27;7.35;;;5.78;;
44536;SDS011;30245;51.966;6.292;2023-11-21T14:04:12;8.60;;;4.35;;
44536;SDS011;30245;51.966;6.292;2023-11-21T14:06:38;8.68;;;5.10;;
44536;SDS011;30245;51.966;6.292;2023-11-21T14:09:13;11.55;;;6.55;;
44536;SDS011;30245;51.966;6.292;2023-11-21T14:11:47;11.13;;;6.50;;
44536;SDS011;30245;51.966;6.292;2023-11-21T14:14:22;9.65;;;5.68;;
44536;SDS011;30245;51.966;6.292;2023-11-21T14:16:55;8.53;;;5.47;;
44536;SDS011;30245;51.966;6.292;2023-11-21T14:19:23;10.40;;;5.40;;
44536;SDS011;30245;51.966;6.292;2023-11-21T14:21:52;11.57;;;7.07;;
44536;SDS011;30245;51.966;6.292;2023-11-21T14:24:18;9.43;;;6.28;;
44536;SDS011;30245;51.966;6.292;2023-11-21T14:26:44;9.45;;;6.35;;
44536;SDS011;30245;51.966;6.292;2023-11-21T14:29:11;6.30;;;4.88;;
44536;SDS011;30245;51.966;6.292;2023-11-21T14:31:39;11.90;;;5.43;;
44536;SDS011;30245;51.966;6.292;2023-11-21T14:34:06;10.63;;;5.63;;
44536;SDS011;30245;51.966;6.292;2023-11-21T14:36:32;11.60;;;6.75;;
44536;SDS011;30245;51.966;6.292;2023-11-21T14:39:08;6.55;;;5.03;;
44536;SDS011;30245;51.966;6.292;2023-11-21T14:41:48;10.23;;;5.90;;
44536;SDS011;30245;51.966;6.292;2023-11-21T14:44:14;8.70;;;5.47;;
44536;SDS011;30245;51.966;6.292;2023-11-21T14:46:40;8.17;;;5.10;;
44536;SDS011;30245;51.966;6.292;2023-11-21T14:49:11;8.35;;;5.13;;
44536;SDS011;30245;51.966;6.292;2023-11-21T14:51:49;7.80;;;6.20;;
44536;SDS011;30245;51.966;6.292;2023-11-21T14:54:32;8.20;;;5.07;;
44536;SDS011;30245;51.966;6.292;2023-11-21T14:57:10;9.63;;;5.32;;
44536;SDS011;30245;51.966;6.292;2023-11-21T14:59:43;6.63;;;5.87;;
44536;SDS011;30245;51.966;6.292;2023-11-21T15:02:16;11.13;;;6.70;;